LNI994 WAAA-WAWW
Flight info
| Callsign | LNI994 |
|---|---|
| Flight time | 0h 41m |
| Altitude | 29000 |
| Route | LEKEX |
| Aircraft | B739/M-SDE2E3FGHIRWXY/LB1 |
Departure
| Time | 2026-05-08 07:49 |
|---|---|
| Airport | Sultan Hasanuddin International Airport (WAAA) |
Arrival
| Time | 2026-05-08 08:30 |
|---|---|
| Airport | Haluoleo Airport (WAWW) |
| Time | Latitude | Longitude | Altitude | Speed | Heading |
|---|---|---|---|---|---|
| 2026-05-08 07:44 | -5.07619 | 119.55117 | 40 ft | 16 kts | 73° |
| 2026-05-08 07:45 | -5.07525 | 119.55183 | 40 ft | 17 kts | 30° |
| 2026-05-08 07:45 | -5.07418 | 119.55245 | 40 ft | 19 kts | 30° |
| 2026-05-08 07:45 | -5.07302 | 119.55311 | 40 ft | 20 kts | 30° |
| 2026-05-08 07:45 | -5.07186 | 119.55378 | 40 ft | 19 kts | 30° |
| 2026-05-08 07:46 | -5.07067 | 119.55446 | 40 ft | 20 kts | 30° |
| 2026-05-08 07:46 | -5.06947 | 119.55515 | 40 ft | 20 kts | 30° |
| 2026-05-08 07:46 | -5.06822 | 119.55588 | 40 ft | 21 kts | 30° |
| 2026-05-08 07:46 | -5.06691 | 119.55663 | 40 ft | 22 kts | 30° |
| 2026-05-08 07:47 | -5.06649 | 119.55719 | 40 ft | 5 kts | 126° |
| 2026-05-08 07:47 | -5.06680 | 119.55753 | 40 ft | 10 kts | 134° |
| 2026-05-08 07:47 | -5.06743 | 119.55822 | 40 ft | 11 kts | 161° |
| 2026-05-08 07:47 | -5.06808 | 119.55800 | 40 ft | 13 kts | 208° |
| 2026-05-08 07:48 | -5.06839 | 119.55782 | 40 ft | 1 kts | 210° |
| 2026-05-08 07:48 | -5.06846 | 119.55779 | 40 ft | 1 kts | 210° |
| 2026-05-08 07:48 | -5.06926 | 119.55732 | 39 ft | 43 kts | 210° |
| 2026-05-08 07:48 | -5.07399 | 119.55458 | 39 ft | 112 kts | 209° |
| 2026-05-08 07:49 | -5.08241 | 119.54976 | 40 ft | 165 kts | 211° |
| 2026-05-08 07:49 | -5.09285 | 119.54388 | 465 ft | 177 kts | 211° |
| 2026-05-08 07:49 | -5.10357 | 119.53759 | 1138 ft | 180 kts | 211° |
| 2026-05-08 07:49 | -5.11447 | 119.53115 | 1679 ft | 188 kts | 208° |
| 2026-05-08 07:50 | -5.12652 | 119.52443 | 1997 ft | 211 kts | 208° |
| 2026-05-08 07:50 | -5.14075 | 119.51806 | 2177 ft | 235 kts | 187° |
| 2026-05-08 07:50 | -5.15730 | 119.51765 | 2520 ft | 250 kts | 178° |
| 2026-05-08 07:50 | -5.17538 | 119.51787 | 2879 ft | 266 kts | 178° |
| 2026-05-08 07:51 | -5.19413 | 119.51805 | 3613 ft | 269 kts | 178° |
| 2026-05-08 07:51 | -5.21283 | 119.51850 | 4465 ft | 269 kts | 169° |
| 2026-05-08 07:51 | -5.22955 | 119.52605 | 5210 ft | 266 kts | 135° |
| 2026-05-08 07:51 | -5.23967 | 119.54125 | 6034 ft | 263 kts | 109° |
| 2026-05-08 07:52 | -5.24285 | 119.55935 | 6720 ft | 268 kts | 88° |
| 2026-05-08 07:52 | -5.24094 | 119.57807 | 7375 ft | 273 kts | 83° |
| 2026-05-08 07:52 | -5.23809 | 119.59701 | 8073 ft | 276 kts | 81° |
| 2026-05-08 07:52 | -5.23504 | 119.61620 | 8769 ft | 280 kts | 81° |
| 2026-05-08 07:53 | -5.23195 | 119.63561 | 9477 ft | 284 kts | 81° |
| 2026-05-08 07:53 | -5.22886 | 119.65533 | 10116 ft | 288 kts | 81° |
| 2026-05-08 07:53 | -5.22572 | 119.67569 | 10424 ft | 306 kts | 81° |
| 2026-05-08 07:53 | -5.22238 | 119.69758 | 10570 ft | 327 kts | 82° |
| 2026-05-08 07:54 | -5.21889 | 119.72074 | 10816 ft | 342 kts | 82° |
| 2026-05-08 07:54 | -5.21531 | 119.74459 | 11310 ft | 348 kts | 82° |
| 2026-05-08 07:54 | -5.21173 | 119.76854 | 11982 ft | 348 kts | 82° |
| 2026-05-08 07:54 | -5.20812 | 119.79273 | 12495 ft | 353 kts | 82° |
| 2026-05-08 07:55 | -5.20448 | 119.81717 | 13033 ft | 357 kts | 82° |
| 2026-05-08 07:55 | -5.20082 | 119.84182 | 13660 ft | 358 kts | 82° |
| 2026-05-08 07:55 | -5.19712 | 119.86672 | 14049 ft | 365 kts | 82° |
| 2026-05-08 07:55 | -5.19335 | 119.89204 | 14530 ft | 367 kts | 82° |
| 2026-05-08 07:56 | -5.18957 | 119.91747 | 15019 ft | 371 kts | 82° |
| 2026-05-08 07:56 | -5.18575 | 119.94320 | 15453 ft | 375 kts | 82° |
| 2026-05-08 07:56 | -5.18188 | 119.96921 | 15916 ft | 379 kts | 82° |
| 2026-05-08 07:56 | -5.17798 | 119.99542 | 16380 ft | 382 kts | 82° |
| 2026-05-08 07:57 | -5.17404 | 120.02186 | 16820 ft | 385 kts | 82° |
| 2026-05-08 07:57 | -5.17007 | 120.04858 | 17246 ft | 389 kts | 82° |
| 2026-05-08 07:57 | -5.16605 | 120.07552 | 17679 ft | 392 kts | 82° |
| 2026-05-08 07:57 | -5.16201 | 120.10269 | 18117 ft | 395 kts | 82° |
| 2026-05-08 07:58 | -5.15793 | 120.13006 | 18481 ft | 398 kts | 82° |
| 2026-05-08 07:58 | -5.15383 | 120.15759 | 18871 ft | 400 kts | 82° |
| 2026-05-08 07:58 | -5.14970 | 120.18528 | 19241 ft | 402 kts | 82° |
| 2026-05-08 07:58 | -5.14555 | 120.21308 | 19605 ft | 404 kts | 82° |
| 2026-05-08 07:59 | -5.14138 | 120.24108 | 19955 ft | 407 kts | 82° |
| 2026-05-08 07:59 | -5.13718 | 120.26923 | 20299 ft | 409 kts | 82° |
| 2026-05-08 07:59 | -5.13295 | 120.29757 | 20647 ft | 412 kts | 82° |
| 2026-05-08 07:59 | -5.12869 | 120.32607 | 20968 ft | 414 kts | 82° |
| 2026-05-08 08:00 | -5.12447 | 120.35432 | 21276 ft | 417 kts | 82° |
| 2026-05-08 08:00 | -5.12017 | 120.38316 | 21600 ft | 419 kts | 81° |
| 2026-05-08 08:00 | -5.11584 | 120.41215 | 21912 ft | 421 kts | 81° |
| 2026-05-08 08:00 | -5.11148 | 120.44127 | 22225 ft | 423 kts | 81° |
| 2026-05-08 08:01 | -5.10710 | 120.47056 | 22533 ft | 426 kts | 81° |
| 2026-05-08 08:01 | -5.10084 | 120.49959 | 22832 ft | 428 kts | 73° |
| 2026-05-08 08:01 | -5.09008 | 120.52742 | 23118 ft | 430 kts | 63° |
| 2026-05-08 08:01 | -5.07528 | 120.55352 | 23421 ft | 431 kts | 59° |
| 2026-05-08 08:02 | -5.05966 | 120.57923 | 23658 ft | 433 kts | 58° |
| 2026-05-08 08:02 | -5.04380 | 120.60496 | 23907 ft | 434 kts | 58° |
| 2026-05-08 08:02 | -5.02795 | 120.63073 | 24154 ft | 435 kts | 58° |
| 2026-05-08 08:02 | -5.01212 | 120.65663 | 24393 ft | 436 kts | 58° |
| 2026-05-08 08:03 | -4.99631 | 120.68269 | 24625 ft | 438 kts | 59° |
| 2026-05-08 08:03 | -4.98051 | 120.70888 | 24844 ft | 440 kts | 59° |
| 2026-05-08 08:03 | -4.96471 | 120.73517 | 25067 ft | 441 kts | 59° |
| 2026-05-08 08:03 | -4.94885 | 120.76159 | 25300 ft | 442 kts | 59° |
| 2026-05-08 08:04 | -4.93298 | 120.78804 | 25518 ft | 444 kts | 59° |
| 2026-05-08 08:04 | -4.91704 | 120.81461 | 25736 ft | 445 kts | 59° |
| 2026-05-08 08:04 | -4.90109 | 120.84120 | 25962 ft | 446 kts | 59° |
| 2026-05-08 08:04 | -4.88508 | 120.86788 | 26170 ft | 447 kts | 59° |
| 2026-05-08 08:05 | -4.86904 | 120.89461 | 26380 ft | 448 kts | 59° |
| 2026-05-08 08:05 | -4.85294 | 120.92142 | 26586 ft | 449 kts | 58° |
| 2026-05-08 08:05 | -4.83678 | 120.94833 | 26800 ft | 450 kts | 58° |
| 2026-05-08 08:05 | -4.82064 | 120.97521 | 27004 ft | 451 kts | 58° |
| 2026-05-08 08:06 | -4.80444 | 121.00218 | 27227 ft | 452 kts | 58° |
| 2026-05-08 08:06 | -4.78820 | 121.02921 | 27427 ft | 453 kts | 58° |
| 2026-05-08 08:06 | -4.77196 | 121.05624 | 27613 ft | 454 kts | 58° |
| 2026-05-08 08:06 | -4.75566 | 121.08338 | 27804 ft | 455 kts | 58° |
| 2026-05-08 08:07 | -4.73942 | 121.11041 | 28115 ft | 452 kts | 58° |
| 2026-05-08 08:07 | -4.72319 | 121.13741 | 28370 ft | 452 kts | 58° |
| 2026-05-08 08:07 | -4.70695 | 121.16442 | 28614 ft | 452 kts | 58° |
| 2026-05-08 08:07 | -4.69075 | 121.19137 | 28814 ft | 450 kts | 58° |
| 2026-05-08 08:08 | -4.67456 | 121.21830 | 28810 ft | 452 kts | 58° |
| 2026-05-08 08:08 | -4.64208 | 121.27232 | 28828 ft | 453 kts | 58° |
| 2026-05-08 08:09 | -4.60955 | 121.32641 | 28833 ft | 453 kts | 58° |
| 2026-05-08 08:09 | -4.57700 | 121.38052 | 28838 ft | 453 kts | 59° |
| 2026-05-08 08:10 | -4.54463 | 121.43433 | 28827 ft | 451 kts | 59° |
| 2026-05-08 08:10 | -4.52866 | 121.46087 | 28820 ft | 440 kts | 59° |
| 2026-05-08 08:10 | -4.51302 | 121.48686 | 28818 ft | 433 kts | 59° |
| 2026-05-08 08:11 | -4.48209 | 121.53825 | 28717 ft | 429 kts | 59° |
| 2026-05-08 08:11 | -4.46667 | 121.56387 | 28288 ft | 427 kts | 59° |
| 2026-05-08 08:11 | -4.45136 | 121.58930 | 27779 ft | 424 kts | 59° |
| 2026-05-08 08:11 | -4.43621 | 121.61445 | 27294 ft | 420 kts | 59° |
| 2026-05-08 08:12 | -4.42117 | 121.63944 | 26789 ft | 417 kts | 59° |
| 2026-05-08 08:12 | -4.40624 | 121.66423 | 26303 ft | 414 kts | 59° |
| 2026-05-08 08:12 | -4.39143 | 121.68882 | 25789 ft | 412 kts | 59° |
| 2026-05-08 08:12 | -4.37665 | 121.71335 | 25285 ft | 410 kts | 59° |
| 2026-05-08 08:13 | -4.36194 | 121.73777 | 24780 ft | 408 kts | 59° |
| 2026-05-08 08:13 | -4.34729 | 121.76210 | 24278 ft | 407 kts | 59° |
| 2026-05-08 08:13 | -4.33268 | 121.78636 | 23773 ft | 406 kts | 58° |
| 2026-05-08 08:13 | -4.31810 | 121.81056 | 23250 ft | 406 kts | 58° |
| 2026-05-08 08:14 | -4.30353 | 121.83474 | 22701 ft | 404 kts | 59° |
| 2026-05-08 08:14 | -4.28909 | 121.85870 | 22195 ft | 400 kts | 59° |
| 2026-05-08 08:14 | -4.27474 | 121.88252 | 21703 ft | 397 kts | 59° |
| 2026-05-08 08:14 | -4.26238 | 121.90705 | 21197 ft | 394 kts | 73° |
| 2026-05-08 08:15 | -4.25796 | 121.93390 | 20750 ft | 390 kts | 87° |
| 2026-05-08 08:15 | -4.25696 | 121.96093 | 20254 ft | 388 kts | 89° |
| 2026-05-08 08:15 | -4.25639 | 121.98782 | 19798 ft | 385 kts | 89° |
| 2026-05-08 08:15 | -4.25586 | 122.01457 | 19327 ft | 383 kts | 89° |
| 2026-05-08 08:16 | -4.25522 | 122.04111 | 18862 ft | 381 kts | 89° |
| 2026-05-08 08:16 | -4.25448 | 122.06754 | 18397 ft | 379 kts | 89° |
| 2026-05-08 08:16 | -4.25366 | 122.09386 | 17900 ft | 377 kts | 89° |
| 2026-05-08 08:16 | -4.25280 | 122.11999 | 17403 ft | 374 kts | 89° |
| 2026-05-08 08:17 | -4.25193 | 122.14589 | 16924 ft | 370 kts | 89° |
| 2026-05-08 08:17 | -4.25106 | 122.17146 | 16476 ft | 367 kts | 89° |
| 2026-05-08 08:17 | -4.25019 | 122.19693 | 16027 ft | 363 kts | 89° |
| 2026-05-08 08:17 | -4.24934 | 122.22179 | 15590 ft | 360 kts | 89° |
| 2026-05-08 08:18 | -4.24849 | 122.24672 | 15150 ft | 357 kts | 89° |
| 2026-05-08 08:18 | -4.24765 | 122.27150 | 14714 ft | 354 kts | 89° |
| 2026-05-08 08:18 | -4.24681 | 122.29608 | 14256 ft | 352 kts | 89° |
| 2026-05-08 08:18 | -4.24597 | 122.32055 | 13800 ft | 351 kts | 89° |
| 2026-05-08 08:19 | -4.24511 | 122.34492 | 13321 ft | 348 kts | 89° |
| 2026-05-08 08:19 | -4.24425 | 122.36876 | 12850 ft | 337 kts | 89° |
| 2026-05-08 08:19 | -4.24342 | 122.39187 | 12418 ft | 326 kts | 89° |
| 2026-05-08 08:19 | -4.24261 | 122.41424 | 12016 ft | 317 kts | 89° |
| 2026-05-08 08:20 | -4.24183 | 122.43609 | 11647 ft | 311 kts | 89° |
| 2026-05-08 08:20 | -4.24105 | 122.45764 | 11357 ft | 310 kts | 89° |
| 2026-05-08 08:20 | -4.24025 | 122.47909 | 10980 ft | 306 kts | 87° |
| 2026-05-08 08:20 | -4.23772 | 122.50006 | 10596 ft | 302 kts | 81° |
| 2026-05-08 08:21 | -4.23397 | 122.52053 | 10320 ft | 294 kts | 80° |
| 2026-05-08 08:21 | -4.23021 | 122.54012 | 10235 ft | 279 kts | 80° |
| 2026-05-08 08:21 | -4.22662 | 122.55929 | 9605 ft | 286 kts | 81° |
| 2026-05-08 08:21 | -4.22308 | 122.57890 | 9133 ft | 283 kts | 81° |
| 2026-05-08 08:22 | -4.21975 | 122.59772 | 8887 ft | 270 kts | 81° |
| 2026-05-08 08:22 | -4.21649 | 122.61637 | 8404 ft | 269 kts | 81° |
| 2026-05-08 08:22 | -4.21329 | 122.63470 | 8005 ft | 264 kts | 81° |
| 2026-05-08 08:22 | -4.21017 | 122.65264 | 7661 ft | 259 kts | 81° |
| 2026-05-08 08:23 | -4.20476 | 122.66971 | 7303 ft | 260 kts | 60° |
| 2026-05-08 08:23 | -4.19222 | 122.68257 | 7001 ft | 262 kts | 34° |
| 2026-05-08 08:23 | -4.17497 | 122.68880 | 6690 ft | 269 kts | 9° |
| 2026-05-08 08:23 | -4.15607 | 122.68777 | 6364 ft | 277 kts | 353° |
| 2026-05-08 08:24 | -4.13690 | 122.68423 | 5990 ft | 283 kts | 352° |
| 2026-05-08 08:24 | -4.11759 | 122.68066 | 5646 ft | 282 kts | 353° |
| 2026-05-08 08:24 | -4.09842 | 122.67721 | 5292 ft | 278 kts | 353° |
| 2026-05-08 08:24 | -4.07945 | 122.67386 | 4962 ft | 275 kts | 352° |
| 2026-05-08 08:25 | -4.06210 | 122.66716 | 4834 ft | 262 kts | 326° |
| 2026-05-08 08:25 | -4.05059 | 122.65400 | 4704 ft | 244 kts | 296° |
| 2026-05-08 08:25 | -4.04563 | 122.63858 | 4591 ft | 223 kts | 276° |
| 2026-05-08 08:25 | -4.04603 | 122.62384 | 4381 ft | 205 kts | 257° |
| 2026-05-08 08:26 | -4.04809 | 122.60982 | 3987 ft | 204 kts | 258° |
| 2026-05-08 08:26 | -4.05025 | 122.59575 | 3562 ft | 203 kts | 257° |
| 2026-05-08 08:26 | -4.05267 | 122.58185 | 3135 ft | 201 kts | 256° |
| 2026-05-08 08:26 | -4.05510 | 122.56819 | 2805 ft | 197 kts | 256° |
| 2026-05-08 08:27 | -4.05750 | 122.55473 | 2507 ft | 193 kts | 256° |
| 2026-05-08 08:27 | -4.05989 | 122.54142 | 2272 ft | 196 kts | 256° |
| 2026-05-08 08:27 | -4.06229 | 122.52795 | 2032 ft | 193 kts | 257° |
| 2026-05-08 08:27 | -4.06455 | 122.51522 | 1759 ft | 177 kts | 257° |
| 2026-05-08 08:28 | -4.06661 | 122.50364 | 1540 ft | 163 kts | 258° |
| 2026-05-08 08:28 | -4.06856 | 122.49275 | 1324 ft | 157 kts | 257° |
| 2026-05-08 08:28 | -4.06982 | 122.48567 | 1222 ft | 157 kts | 259° |
| 2026-05-08 08:28 | -4.07240 | 122.47124 | 938 ft | 157 kts | 259° |
| 2026-05-08 08:29 | -4.07366 | 122.46420 | 806 ft | 154 kts | 259° |
| 2026-05-08 08:29 | -4.07554 | 122.45365 | 617 ft | 154 kts | 259° |
| 2026-05-08 08:29 | -4.07738 | 122.44309 | 389 ft | 154 kts | 260° |
| 2026-05-08 08:29 | -4.07925 | 122.43266 | 242 ft | 152 kts | 259° |
| 2026-05-08 08:30 | -4.08107 | 122.42258 | 170 ft | 131 kts | 260° |
| 2026-05-08 08:30 | -4.08241 | 122.41509 | 166 ft | 83 kts | 259° |
| 2026-05-08 08:30 | -4.08371 | 122.40901 | 169 ft | 7 kts | 260° |
| 2026-05-08 08:31 | -4.08340 | 122.40888 | 169 ft | 5 kts | 44° |
| 2026-05-08 08:31 | -4.08338 | 122.40924 | 169 ft | 6 kts | 91° |
| 2026-05-08 08:31 | -4.08335 | 122.40976 | 169 ft | 10 kts | 83° |
| 2026-05-08 08:31 | -4.08321 | 122.41061 | 168 ft | 15 kts | 80° |
| 2026-05-08 08:32 | -4.08300 | 122.41175 | 168 ft | 18 kts | 79° |
| 2026-05-08 08:32 | -4.08276 | 122.41306 | 167 ft | 20 kts | 79° |
| 2026-05-08 08:32 | -4.08250 | 122.41454 | 166 ft | 23 kts | 79° |
| 2026-05-08 08:32 | -4.08222 | 122.41605 | 166 ft | 18 kts | 79° |
| 2026-05-08 08:33 | -4.08185 | 122.41722 | 166 ft | 16 kts | 38° |
| 2026-05-08 08:33 | -4.08078 | 122.41719 | 167 ft | 16 kts | 348° |
| 2026-05-08 08:33 | -4.07964 | 122.41699 | 167 ft | 17 kts | 350° |
| 2026-05-08 08:33 | -4.07874 | 122.41701 | 168 ft | 7 kts | 51° |
| 2026-05-08 08:34 | -4.07848 | 122.41745 | 167 ft | 8 kts | 22° |
| 2026-05-08 08:34 | -4.07800 | 122.41742 | 167 ft | 0 kts | 349° |
| 2026-05-08 08:34 | -4.07789 | 122.41740 | 167 ft | 0 kts | 349° |